Time;durP1;ratioP1;P1;durP2;ratioP2;P2;SDS_P1;SDS_P2;PMS_P1;PMS_P2;Temp;Humidity;BMP_temperature;BMP_pressure;BME280_temperature;BME280_humidity;BME280_pressure;Samples;Min_cycle;Max_cycle;Signal;HPM_P1;HPM_P2
2023/05/02 00:02:04;;;;;;;4.25;2.70;;;;;;;;;;5097292;28;20045;-83
2023/05/02 00:04:31;;;;;;;4.80;2.92;;;;;;;;;;5097962;28;20028;-86
2023/05/02 00:06:58;;;;;;;3.90;2.72;;;;;;;;;;5098243;28;20032;-84
2023/05/02 00:09:26;;;;;;;4.60;3.00;;;;;;;;;;5094327;28;20059;-82
2023/05/02 00:11:53;;;;;;;4.25;2.85;;;;;;;;;;5090911;28;20041;-81
2023/05/02 00:14:19;;;;;;;4.80;3.03;;;;;;;;;;5089475;28;20068;-82
2023/05/02 00:16:46;;;;;;;4.90;3.17;;;;;;;;;;5088329;28;20048;-83
2023/05/02 00:19:13;;;;;;;4.30;2.80;;;;;;;;;;5089526;28;20068;-83
2023/05/02 00:21:39;;;;;;;4.72;3.40;;;;;;;;;;5088897;28;20055;-82
2023/05/02 00:24:06;;;;;;;5.05;2.95;;;;;;;;;;5091473;28;20060;-84
2023/05/02 00:26:35;;;;;;;4.75;2.85;;;;;;;;;;5101615;22;20092;-69
2023/05/02 00:29:02;;;;;;;4.57;2.60;;;;;;;;;;5093151;28;20048;-69
2023/05/02 00:31:29;;;;;;;3.72;2.38;;;;;;;;;;5092911;28;20048;-69
2023/05/02 00:33:56;;;;;;;4.85;2.63;;;;;;;;;;5093233;28;20673;-70
2023/05/02 00:36:23;;;;;;;3.72;2.55;;;;;;;;;;5092546;28;20127;-70
2023/05/02 00:38:50;;;;;;;4.20;2.65;;;;;;;;;;5092631;28;20128;-69
2023/05/02 00:41:17;;;;;;;4.40;3.00;;;;;;;;;;5092261;28;20075;-69
2023/05/02 00:43:46;;;;;;;4.35;2.80;;;;;;;;;;5092516;28;20044;-67
2023/05/02 00:46:14;;;;;;;5.05;2.78;;;;;;;;;;5091993;28;20056;-67
2023/05/02 00:48:41;;;;;;;3.88;2.63;;;;;;;;;;5092139;28;20048;-67
2023/05/02 00:51:11;;;;;;;3.85;2.53;;;;;;;;;;5092384;28;20071;-67
2023/05/02 00:53:38;;;;;;;4.30;2.67;;;;;;;;;;5092552;28;20047;-67
2023/05/02 00:56:06;;;;;;;4.15;2.55;;;;;;;;;;5092684;28;20048;-68
2023/05/02 00:58:33;;;;;;;4.85;3.20;;;;;;;;;;5092547;28;20471;-68
2023/05/02 01:01:15;;;;;;;3.55;2.50;;;;;;;;;;5092511;28;20064;-68
2023/05/02 01:03:52;;;;;;;4.53;2.88;;;;;;;;;;5072485;28;20045;-70
2023/05/02 01:06:31;;;;;;;3.58;2.38;;;;;;;;;;5072377;28;20400;-68
2023/05/02 01:09:07;;;;;;;5.55;3.05;;;;;;;;;;5071678;28;20109;-68
2023/05/02 01:11:44;;;;;;;4.30;2.80;;;;;;;;;;5071675;28;20447;-69
2023/05/02 01:14:12;;;;;;;3.88;2.42;;;;;;;;;;5072615;28;20090;-68
2023/05/02 01:16:42;;;;;;;4.20;2.60;;;;;;;;;;5071800;28;20048;-68
2023/05/02 01:19:13;;;;;;;;;;;;;;;;;;5072886;28;20481;-68
2023/05/02 01:21:41;;;;;;;5.25;3.00;;;;;;;;;;5054038;28;19924;-69
2023/05/02 01:24:14;;;;;;;4.35;2.50;;;;;;;;;;5071912;28;20494;-69
2023/05/02 01:26:52;;;;;;;4.75;3.03;;;;;;;;;;5071782;28;20668;-69
2023/05/02 01:29:22;;;;;;;3.88;2.55;;;;;;;;;;5072051;28;20052;-69
2023/05/02 01:31:51;;;;;;;5.88;2.92;;;;;;;;;;5071142;28;20132;-69
2023/05/02 01:34:20;;;;;;;4.60;2.45;;;;;;;;;;5071177;28;20048;-68
2023/05/02 01:36:50;;;;;;;5.00;3.03;;;;;;;;;;5080986;28;20052;-68
2023/05/02 01:39:21;;;;;;;4.63;3.00;;;;;;;;;;5089669;28;20140;-68
2023/05/02 01:41:51;;;;;;;4.20;2.58;;;;;;;;;;5089568;28;20047;-68
2023/05/02 01:44:21;;;;;;;4.00;2.60;;;;;;;;;;5090891;28;20076;-69
2023/05/02 01:46:50;;;;;;;4.10;2.65;;;;;;;;;;5090816;28;20074;-69
2023/05/02 01:49:19;;;;;;;4.55;2.90;;;;;;;;;;5091116;28;20052;-69
2023/05/02 01:51:49;;;;;;;4.15;2.67;;;;;;;;;;5091021;28;20133;-69
2023/05/02 01:54:18;;;;;;;4.80;2.95;;;;;;;;;;5091056;28;20097;-69
2023/05/02 01:56:46;;;;;;;4.53;2.72;;;;;;;;;;5091004;28;20067;-69
2023/05/02 01:59:17;;;;;;;4.18;2.45;;;;;;;;;;5090691;28;20055;-69
2023/05/02 02:01:45;;;;;;;4.13;2.65;;;;;;;;;;5086662;28;20460;-69
2023/05/02 02:04:15;;;;;;;4.00;2.55;;;;;;;;;;5070630;28;20044;-69
2023/05/02 02:06:47;;;;;;;4.50;3.10;;;;;;;;;;5072708;28;20098;-69
2023/05/02 02:09:14;;;;;;;4.95;2.85;;;;;;;;;;5074519;28;20094;-69
2023/05/02 02:11:46;;;;;;;4.60;2.53;;;;;;;;;;5074604;28;20052;-68
2023/05/02 02:14:19;;;;;;;4.07;2.60;;;;;;;;;;5074416;28;20048;-69
2023/05/02 02:16:49;;;;;;;3.75;2.70;;;;;;;;;;5074136;28;20059;-69
2023/05/02 02:19:16;;;;;;;4.40;2.70;;;;;;;;;;5074370;28;20440;-68
2023/05/02 02:21:44;;;;;;;4.57;2.83;;;;;;;;;;5074258;28;20278;-68
2023/05/02 02:24:12;;;;;;;4.80;2.80;;;;;;;;;;5074149;28;20051;-68
2023/05/02 02:26:39;;;;;;;4.53;2.80;;;;;;;;;;5073571;28;20049;-69
2023/05/02 02:29:06;;;;;;;4.28;2.63;;;;;;;;;;5074038;28;20105;-68
2023/05/02 02:31:34;;;;;;;4.10;2.67;;;;;;;;;;5073837;28;20460;-68
2023/05/02 02:34:03;;;;;;;4.10;2.65;;;;;;;;;;5074431;28;20135;-71
2023/05/02 02:36:36;;;;;;;3.92;2.53;;;;;;;;;;5074436;28;20486;-71
2023/05/02 02:39:13;;;;;;;4.32;3.10;;;;;;;;;;5074864;28;20051;-70
2023/05/02 02:41:47;;;;;;;4.10;2.50;;;;;;;;;;5074699;28;20048;-69
2023/05/02 02:44:28;;;;;;;3.75;2.65;;;;;;;;;;5074456;28;20449;-68
2023/05/02 02:47:05;;;;;;;4.75;2.90;;;;;;;;;;5074074;28;20102;-68
2023/05/02 02:49:48;;;;;;;4.72;2.92;;;;;;;;;;5074179;28;20063;-69
2023/05/02 02:52:22;;;;;;;4.30;2.60;;;;;;;;;;5074189;28;20054;-69
2023/05/02 02:54:55;;;;;;;4.63;3.00;;;;;;;;;;5074215;28;20098;-68
2023/05/02 02:57:28;;;;;;;4.45;2.70;;;;;;;;;;5073797;28;20052;-69
2023/05/02 03:00:01;;;;;;;4.43;2.80;;;;;;;;;;5073881;28;20063;-68
2023/05/02 03:02:31;;;;;;;4.25;2.63;;;;;;;;;;5084235;28;20059;-69
2023/05/02 03:05:01;;;;;;;4.28;2.72;;;;;;;;;;5094263;28;20044;-69
2023/05/02 03:07:28;;;;;;;3.83;2.40;;;;;;;;;;5093980;28;20059;-69
2023/05/02 03:09:55;;;;;;;4.28;2.90;;;;;;;;;;5093942;28;20508;-69
2023/05/02 03:12:22;;;;;;;4.93;2.70;;;;;;;;;;5094433;28;20051;-70
2023/05/02 03:14:50;;;;;;;4.65;2.80;;;;;;;;;;5094468;28;20048;-70
2023/05/02 03:17:16;;;;;;;5.10;3.17;;;;;;;;;;5093945;28;20048;-69
2023/05/02 03:19:43;;;;;;;4.72;3.00;;;;;;;;;;5094200;28;20051;-70
2023/05/02 03:22:12;;;;;;;3.90;2.60;;;;;;;;;;5093983;28;20457;-69
2023/05/02 03:24:38;;;;;;;4.22;2.75;;;;;;;;;;5095487;22;20045;-70
2023/05/02 03:27:05;;;;;;;4.78;3.10;;;;;;;;;;5072981;28;20053;-68
2023/05/02 03:29:32;;;;;;;4.80;2.63;;;;;;;;;;5073217;28;20143;-68
2023/05/02 03:31:59;;;;;;;3.58;2.40;;;;;;;;;;5073063;28;20131;-70
2023/05/02 03:34:26;;;;;;;4.60;2.75;;;;;;;;;;5073041;28;20048;-68
2023/05/02 03:36:52;;;;;;;5.10;2.70;;;;;;;;;;5072700;28;20067;-68
2023/05/02 03:39:20;;;;;;;4.43;2.65;;;;;;;;;;5072822;28;20052;-68
2023/05/02 03:41:47;;;;;;;5.03;3.20;;;;;;;;;;5072939;28;20106;-69
2023/05/02 03:44:14;;;;;;;4.22;2.70;;;;;;;;;;5072641;28;20057;-69
2023/05/02 03:46:41;;;;;;;4.32;2.67;;;;;;;;;;5072379;28;20052;-69
2023/05/02 03:49:08;;;;;;;4.05;2.78;;;;;;;;;;5072943;28;20056;-69
2023/05/02 03:51:35;;;;;;;4.25;2.58;;;;;;;;;;5072951;28;20063;-70
2023/05/02 03:54:02;;;;;;;3.67;2.80;;;;;;;;;;5072948;28;20131;-69
2023/05/02 03:56:30;;;;;;;4.97;3.25;;;;;;;;;;5072896;28;20497;-69
2023/05/02 03:58:57;;;;;;;4.03;2.45;;;;;;;;;;5072748;28;20049;-69
2023/05/02 04:01:24;;;;;;;4.15;2.55;;;;;;;;;;5072731;28;20144;-69
2023/05/02 04:03:52;;;;;;;4.72;2.83;;;;;;;;;;5072701;28;20048;-69
2023/05/02 04:06:19;;;;;;;4.72;2.60;;;;;;;;;;5072337;28;20405;-69
2023/05/02 04:08:45;;;;;;;4.95;2.80;;;;;;;;;;5072577;28;20102;-69
2023/05/02 04:11:12;;;;;;;4.40;2.47;;;;;;;;;;5072466;28;20048;-71
2023/05/02 04:13:40;;;;;;;4.13;2.58;;;;;;;;;;5072561;28;20059;-69
2023/05/02 04:16:08;;;;;;;4.25;3.00;;;;;;;;;;5072098;28;20059;-69
2023/05/02 04:18:35;;;;;;;4.22;2.88;;;;;;;;;;5072386;28;20078;-69
2023/05/02 04:21:02;;;;;;;4.85;2.67;;;;;;;;;;5072221;28;20109;-69
2023/05/02 04:23:29;;;;;;;5.20;2.90;;;;;;;;;;5072113;28;20193;-69
2023/05/02 04:25:56;;;;;;;5.03;2.97;;;;;;;;;;5071841;28;20660;-69
2023/05/02 04:28:23;;;;;;;4.70;3.22;;;;;;;;;;5071455;28;20467;-69
2023/05/02 04:30:51;;;;;;;4.53;2.85;;;;;;;;;;5072300;28;20139;-69
2023/05/02 04:33:18;;;;;;;5.55;3.05;;;;;;;;;;5072152;28;20044;-69
2023/05/02 04:35:45;;;;;;;4.55;3.05;;;;;;;;;;5072122;28;20064;-69
2023/05/02 04:38:12;;;;;;;7.22;4.03;;;;;;;;;;5072054;28;20444;-69
2023/05/02 04:40:40;;;;;;;4.85;2.53;;;;;;;;;;5072492;28;20049;-69
2023/05/02 04:43:07;;;;;;;4.78;2.63;;;;;;;;;;5072031;28;20048;-70
2023/05/02 04:45:35;;;;;;;4.95;2.92;;;;;;;;;;5071868;28;20135;-69
2023/05/02 04:48:04;;;;;;;4.70;2.58;;;;;;;;;;5071907;28;20052;-69
2023/05/02 04:50:31;;;;;;;4.57;2.85;;;;;;;;;;5071825;28;20045;-69
2023/05/02 04:52:58;;;;;;;4.90;3.13;;;;;;;;;;5072048;28;20622;-69
2023/05/02 04:55:25;;;;;;;4.65;2.88;;;;;;;;;;5072070;28;20048;-69
2023/05/02 04:57:51;;;;;;;4.57;2.97;;;;;;;;;;5071606;28;20468;-70
2023/05/02 05:00:18;;;;;;;4.80;2.90;;;;;;;;;;5071871;28;20054;-69
2023/05/02 05:02:45;;;;;;;4.50;2.90;;;;;;;;;;5059267;28;20056;-68
2023/05/02 05:05:14;;;;;;;4.78;3.10;;;;;;;;;;5051686;28;20052;-69
2023/05/02 05:07:41;;;;;;;4.55;2.95;;;;;;;;;;5051481;28;20106;-69
2023/05/02 05:10:10;;;;;;;4.88;3.00;;;;;;;;;;5051917;28;20075;-69
2023/05/02 05:12:37;;;;;;;5.13;3.17;;;;;;;;;;5051571;28;20132;-69
2023/05/02 05:15:05;;;;;;;5.35;3.40;;;;;;;;;;5051579;28;20692;-69
2023/05/02 05:17:32;;;;;;;5.53;3.10;;;;;;;;;;5051630;28;20061;-69
2023/05/02 05:20:03;;;;;;;4.35;2.85;;;;;;;;;;5052777;28;20045;-71
2023/05/02 05:22:31;;;;;;;4.78;3.17;;;;;;;;;;5052600;28;20467;-70
2023/05/02 05:24:59;;;;;;;7.20;3.42;;;;;;;;;;5053136;28;20071;-70
2023/05/02 05:27:26;;;;;;;4.93;3.17;;;;;;;;;;5052914;28;20041;-69
2023/05/02 05:29:54;;;;;;;5.35;3.03;;;;;;;;;;5052769;28;20053;-71
2023/05/02 05:32:23;;;;;;;5.80;3.17;;;;;;;;;;5052372;28;20052;-70
2023/05/02 05:34:52;;;;;;;5.60;3.03;;;;;;;;;;5052880;28;20056;-70
2023/05/02 05:37:20;;;;;;;5.57;3.40;;;;;;;;;;5052734;28;20056;-71
2023/05/02 05:39:48;;;;;;;5.68;3.42;;;;;;;;;;5051948;28;20277;-69
2023/05/02 05:42:15;;;;;;;5.50;3.95;;;;;;;;;;5055614;28;20049;-70
2023/05/02 05:44:43;;;;;;;5.03;3.58;;;;;;;;;;5056745;28;20045;-71
2023/05/02 05:47:10;;;;;;;6.22;3.47;;;;;;;;;;5056075;28;20049;-71
2023/05/02 05:49:38;;;;;;;6.47;3.35;;;;;;;;;;5056127;28;20053;-70
2023/05/02 05:52:07;;;;;;;6.10;3.90;;;;;;;;;;5056677;28;20057;-70
2023/05/02 05:54:35;;;;;;;5.57;4.03;;;;;;;;;;5056107;28;20102;-70
2023/05/02 05:57:04;;;;;;;5.95;3.80;;;;;;;;;;5056385;28;20087;-71
2023/05/02 05:59:31;;;;;;;6.07;3.83;;;;;;;;;;5056441;28;20060;-70
2023/05/02 06:01:58;;;;;;;6.40;3.67;;;;;;;;;;5061993;28;20056;-70
2023/05/02 06:04:26;;;;;;;4.97;3.38;;;;;;;;;;5076201;28;20052;-70
2023/05/02 06:06:54;;;;;;;6.40;4.07;;;;;;;;;;5076254;28;20052;-71
2023/05/02 06:09:20;;;;;;;6.60;4.22;;;;;;;;;;5075477;28;20459;-68
2023/05/02 06:11:47;;;;;;;5.78;3.95;;;;;;;;;;5075276;28;20485;-70
2023/05/02 06:14:16;;;;;;;6.07;4.28;;;;;;;;;;5075146;28;20102;-70
2023/05/02 06:16:43;;;;;;;5.82;3.70;;;;;;;;;;5074928;28;20057;-69
2023/05/02 06:19:09;;;;;;;5.75;3.80;;;;;;;;;;5075242;28;20052;-68
2023/05/02 06:21:37;;;;;;;5.95;4.05;;;;;;;;;;5074958;28;20053;-69
2023/05/02 06:24:04;;;;;;;6.35;3.95;;;;;;;;;;5074585;28;20049;-69
2023/05/02 06:26:31;;;;;;;6.28;4.05;;;;;;;;;;5074676;28;20098;-69
2023/05/02 06:28:57;;;;;;;6.45;4.45;;;;;;;;;;5074663;28;20048;-70
2023/05/02 06:31:26;;;;;;;5.85;3.95;;;;;;;;;;5074687;28;20083;-70
2023/05/02 06:33:52;;;;;;;7.13;4.30;;;;;;;;;;5074967;28;20488;-69
2023/05/02 06:36:19;;;;;;;6.65;4.25;;;;;;;;;;5074686;28;20102;-71
2023/05/02 06:38:46;;;;;;;5.50;3.88;;;;;;;;;;5074358;28;20485;-70
2023/05/02 06:41:13;;;;;;;7.30;5.05;;;;;;;;;;5074284;28;20044;-71
2023/05/02 06:43:40;;;;;;;6.20;4.35;;;;;;;;;;5075183;28;20552;-68
2023/05/02 06:46:08;;;;;;;6.88;4.40;;;;;;;;;;5074573;28;20044;-67
2023/05/02 06:48:37;;;;;;;5.88;3.88;;;;;;;;;;5075051;28;20049;-67
2023/05/02 06:51:04;;;;;;;5.97;3.88;;;;;;;;;;5074635;28;20067;-69
2023/05/02 06:53:33;;;;;;;6.97;4.90;;;;;;;;;;5074941;28;20098;-68
2023/05/02 06:56:00;;;;;;;6.82;4.88;;;;;;;;;;5074550;28;20056;-68
2023/05/02 06:58:27;;;;;;;8.15;5.65;;;;;;;;;;5074169;28;20524;-68
2023/05/02 07:00:54;;;;;;;6.53;5.28;;;;;;;;;;5074436;28;20044;-70
2023/05/02 07:03:21;;;;;;;7.20;5.15;;;;;;;;;;5074722;28;20052;-70
2023/05/02 07:05:49;;;;;;;7.82;5.10;;;;;;;;;;5075058;28;20060;-70
2023/05/02 07:08:17;;;;;;;7.35;5.18;;;;;;;;;;5074400;28;20084;-70
2023/05/02 07:10:44;;;;;;;7.72;6.10;;;;;;;;;;5074494;28;20059;-72
2023/05/02 07:13:10;;;;;;;7.43;5.35;;;;;;;;;;5074417;28;20059;-70
2023/05/02 07:15:40;;;;;;;7.55;4.95;;;;;;;;;;5074698;28;20519;-69
2023/05/02 07:18:07;;;;;;;6.30;4.65;;;;;;;;;;5074654;28;20101;-70
2023/05/02 07:20:34;;;;;;;7.95;5.53;;;;;;;;;;5074232;28;20052;-69
2023/05/02 07:23:02;;;;;;;7.40;5.03;;;;;;;;;;5065690;28;20057;-70
2023/05/02 07:25:29;;;;;;;6.68;4.88;;;;;;;;;;5054208;28;20053;-69
2023/05/02 07:27:56;;;;;;;6.97;5.10;;;;;;;;;;5054122;28;20186;-71
2023/05/02 07:30:23;;;;;;;13.68;7.05;;;;;;;;;;5064178;28;20053;-71
2023/05/02 07:32:50;;;;;;;8.45;6.50;;;;;;;;;;5071939;28;20048;-70
2023/05/02 07:35:17;;;;;;;7.57;5.22;;;;;;;;;;5071960;28;20049;-70
2023/05/02 07:37:44;;;;;;;7.25;5.50;;;;;;;;;;5071880;28;20082;-70
2023/05/02 07:40:12;;;;;;;8.40;5.25;;;;;;;;;;5071638;28;20485;-70
2023/05/02 07:42:40;;;;;;;8.60;6.03;;;;;;;;;;5071804;28;20070;-70
2023/05/02 07:45:08;;;;;;;8.60;6.72;;;;;;;;;;5072498;28;20095;-69
2023/05/02 07:47:35;;;;;;;9.07;6.07;;;;;;;;;;5071823;28;20399;-72
2023/05/02 07:50:07;;;;;;;7.28;5.93;;;;;;;;;;5072045;28;20056;-71
2023/05/02 07:52:34;;;;;;;7.40;5.78;;;;;;;;;;5072498;28;20401;-70
2023/05/02 07:55:01;;;;;;;8.80;6.13;;;;;;;;;;5071327;28;20056;-71
2023/05/02 07:57:29;;;;;;;7.95;5.50;;;;;;;;;;5071229;28;20041;-69
2023/05/02 07:59:56;;;;;;;7.55;6.00;;;;;;;;;;5071437;28;20429;-70
2023/05/02 08:02:24;;;;;;;8.10;5.90;;;;;;;;;;5071611;28;20048;-69
2023/05/02 08:04:51;;;;;;;8.52;6.60;;;;;;;;;;5070339;28;20064;-69
2023/05/02 08:07:18;;;;;;;8.07;6.10;;;;;;;;;;5071045;28;20135;-70
2023/05/02 08:09:45;;;;;;;7.63;5.57;;;;;;;;;;5070726;28;20068;-70
2023/05/02 08:12:12;;;;;;;9.85;7.65;;;;;;;;;;5070699;28;20052;-72
2023/05/02 08:14:41;;;;;;;8.23;5.60;;;;;;;;;;5071041;28;20118;-71
2023/05/02 08:17:08;;;;;;;9.38;5.85;;;;;;;;;;5072760;28;20053;-71
2023/05/02 08:19:35;;;;;;;7.55;5.53;;;;;;;;;;5071558;28;20049;-70
2023/05/02 08:22:01;;;;;;;7.88;5.85;;;;;;;;;;5071004;28;20049;-71
2023/05/02 08:24:30;;;;;;;8.05;5.95;;;;;;;;;;5071144;28;20048;-71
2023/05/02 08:26:56;;;;;;;9.10;6.55;;;;;;;;;;5071113;28;20147;-70
2023/05/02 08:29:24;;;;;;;14.25;8.32;;;;;;;;;;5070775;28;20102;-69
2023/05/02 08:31:52;;;;;;;12.68;7.97;;;;;;;;;;5070614;28;20052;-71
2023/05/02 08:34:18;;;;;;;9.05;6.38;;;;;;;;;;5070482;28;20386;-70
2023/05/02 08:36:46;;;;;;;9.25;6.90;;;;;;;;;;5070652;28;20052;-70
2023/05/02 08:39:13;;;;;;;8.30;6.07;;;;;;;;;;5070231;28;20044;-71
2023/05/02 08:41:40;;;;;;;7.78;6.35;;;;;;;;;;5070600;28;20094;-70
2023/05/02 08:44:07;;;;;;;7.38;6.15;;;;;;;;;;5070872;28;20117;-70
2023/05/02 08:46:36;;;;;;;8.23;5.70;;;;;;;;;;5071043;28;20514;-70
2023/05/02 08:49:06;;;;;;;7.97;6.82;;;;;;;;;;5070351;28;20097;-70
2023/05/02 08:51:34;;;;;;;7.82;6.28;;;;;;;;;;5071054;28;20052;-70
2023/05/02 08:54:02;;;;;;;9.18;6.10;;;;;;;;;;5070630;28;20055;-70
2023/05/02 08:56:30;;;;;;;8.32;6.82;;;;;;;;;;5070692;28;20060;-70
2023/05/02 08:58:56;;;;;;;9.90;7.45;;;;;;;;;;5070242;28;20059;-71
2023/05/02 09:01:28;;;;;;;9.00;5.93;;;;;;;;;;5070737;28;20507;-70
2023/05/02 09:03:57;;;;;;;8.00;6.25;;;;;;;;;;5070609;28;20059;-70
2023/05/02 09:06:27;;;;;;;9.55;7.20;;;;;;;;;;5070326;28;20074;-70
2023/05/02 09:08:53;;;;;;;8.43;6.23;;;;;;;;;;5070425;28;20152;-71
2023/05/02 09:11:21;;;;;;;9.25;8.32;;;;;;;;;;5070382;28;21070;-71
2023/05/02 09:13:49;;;;;;;8.60;6.93;;;;;;;;;;5070418;28;20052;-67
2023/05/02 09:16:18;;;;;;;9.68;7.22;;;;;;;;;;5070523;28;20449;-69
2023/05/02 09:18:46;;;;;;;9.75;7.15;;;;;;;;;;5070484;28;20070;-70
2023/05/02 09:21:15;;;;;;;9.38;6.85;;;;;;;;;;5070191;28;20048;-69
2023/05/02 09:23:45;;;;;;;8.52;6.82;;;;;;;;;;5069888;28;20059;-67
2023/05/02 09:26:18;;;;;;;10.45;7.63;;;;;;;;;;5082467;22;20103;-88
2023/05/02 09:28:46;;;;;;;8.73;6.88;;;;;;;;;;5050861;28;20554;-86
2023/05/02 09:31:14;;;;;;;10.57;7.43;;;;;;;;;;5050514;28;20133;-86
2023/05/02 09:33:41;;;;;;;9.50;7.00;;;;;;;;;;5051153;28;20053;-86
2023/05/02 09:36:10;;;;;;;12.27;7.30;;;;;;;;;;5051332;28;20131;-87
2023/05/02 09:38:38;;;;;;;8.30;7.00;;;;;;;;;;5051014;28;20779;-86
2023/05/02 09:41:06;;;;;;;9.98;7.05;;;;;;;;;;5051694;28;20136;-86
2023/05/02 09:43:35;;;;;;;9.85;7.18;;;;;;;;;;5051355;28;20057;-86
2023/05/02 09:46:03;;;;;;;8.23;6.60;;;;;;;;;;5051415;28;20076;-86
2023/05/02 09:48:32;;;;;;;8.60;7.07;;;;;;;;;;5050753;28;20407;-85
2023/05/02 09:50:58;;;;;;;8.73;6.90;;;;;;;;;;5052756;28;20076;-85
2023/05/02 09:53:26;;;;;;;8.38;7.10;;;;;;;;;;5050646;28;20123;-86
2023/05/02 09:56:01;;;;;;;7.97;6.35;;;;;;;;;;5052473;28;20127;-87
2023/05/02 09:58:29;;;;;;;9.07;7.20;;;;;;;;;;5053066;28;20049;-86
2023/05/02 10:00:57;;;;;;;8.20;6.07;;;;;;;;;;5052088;28;20041;-86
2023/05/02 10:03:26;;;;;;;8.20;5.90;;;;;;;;;;5050982;28;20128;-87
2023/05/02 10:05:53;;;;;;;8.95;7.07;;;;;;;;;;5051857;28;20071;-86
2023/05/02 10:08:21;;;;;;;8.60;6.45;;;;;;;;;;5051499;28;20505;-86
2023/05/02 10:10:52;;;;;;;8.88;6.28;;;;;;;;;;5055768;28;20083;-86
2023/05/02 10:13:21;;;;;;;8.30;7.00;;;;;;;;;;5055474;28;20084;-86
2023/05/02 10:15:53;;;;;;;9.75;7.10;;;;;;;;;;5052452;28;20509;-87
2023/05/02 10:18:26;;;;;;;9.35;7.25;;;;;;;;;;5052189;28;20087;-87
2023/05/02 10:20:58;;;;;;;7.53;6.53;;;;;;;;;;5056069;28;20091;-87
2023/05/02 10:23:29;;;;;;;8.05;7.20;;;;;;;;;;5067212;28;20049;-86
2023/05/02 10:26:00;;;;;;;7.97;6.80;;;;;;;;;;5065674;28;20037;-87
2023/05/02 10:28:34;;;;;;;8.20;6.95;;;;;;;;;;5067857;28;20088;-87
2023/05/02 10:31:02;;;;;;;9.00;6.68;;;;;;;;;;5069875;28;20067;-86
2023/05/02 10:33:31;;;;;;;8.20;7.05;;;;;;;;;;5069362;28;20056;-84
2023/05/02 10:35:58;;;;;;;8.13;7.03;;;;;;;;;;5069303;28;20052;-86
2023/05/02 10:38:25;;;;;;;7.95;6.75;;;;;;;;;;5065112;28;20073;-84
2023/05/02 10:40:56;;;;;;;7.65;6.55;;;;;;;;;;5067250;28;20045;-85
2023/05/02 10:43:28;;;;;;;7.80;6.07;;;;;;;;;;5060381;28;20049;-85
2023/05/02 10:45:55;;;;;;;8.98;6.57;;;;;;;;;;5058426;28;20045;-85
2023/05/02 10:48:25;;;;;;;8.73;6.53;;;;;;;;;;5058583;28;20041;-85
2023/05/02 10:50:53;;;;;;;11.70;7.72;;;;;;;;;;5058418;28;20084;-85
2023/05/02 10:53:29;;;;;;;9.60;7.45;;;;;;;;;;5058193;28;20103;-85
2023/05/02 10:56:13;;;;;;;9.57;7.38;;;;;;;;;;5057894;28;20091;-85
2023/05/02 10:58:47;;;;;;;12.20;9.18;;;;;;;;;;5057440;28;20060;-85
2023/05/02 11:01:41;;;;;;;15.55;10.13;;;;;;;;;;5058214;28;20079;-85
2023/05/02 11:04:12;;;;;;;14.35;10.23;;;;;;;;;;5078640;28;20052;-85
2023/05/02 11:07:16;;;;;;;10.52;8.15;;;;;;;;;;5078789;28;20041;-85
2023/05/02 11:09:43;;;;;;;9.30;7.03;;;;;;;;;;5080354;28;20712;-85
2023/05/02 11:12:10;;;;;;;9.40;7.78;;;;;;;;;;5081101;28;20132;-84
2023/05/02 11:14:49;;;;;;;9.77;8.50;;;;;;;;;;5079519;28;20113;-84
2023/05/02 11:17:17;;;;;;;10.32;7.88;;;;;;;;;;5080844;28;20071;-83
2023/05/02 11:20:25;;;;;;;10.77;8.65;;;;;;;;;;5091047;28;20052;-84
2023/05/02 11:22:55;;;;;;;9.70;8.02;;;;;;;;;;5093267;28;20062;-84
2023/05/02 11:25:32;;;;;;;10.50;8.68;;;;;;;;;;5082395;28;20129;-84
2023/05/02 11:27:59;;;;;;;10.75;7.75;;;;;;;;;;5075325;28;20040;-85
2023/05/02 11:30:43;;;;;;;11.18;8.98;;;;;;;;;;5075411;28;20078;-85
2023/05/02 11:33:19;;;;;;;10.60;9.07;;;;;;;;;;5075669;28;20086;-84
2023/05/02 11:35:49;;;;;;;10.63;8.63;;;;;;;;;;5077308;28;20048;-85
2023/05/02 11:38:20;;;;;;;13.60;8.02;;;;;;;;;;5091514;28;20076;-85
2023/05/02 11:40:57;;;;;;;10.65;8.45;;;;;;;;;;5095576;28;20049;-85
2023/05/02 11:43:28;;;;;;;10.45;8.52;;;;;;;;;;5078456;28;20045;-85
2023/05/02 11:45:55;;;;;;;9.77;8.20;;;;;;;;;;5076493;28;20083;-85
2023/05/02 11:48:26;;;;;;;9.82;7.93;;;;;;;;;;5074704;28;20141;-87
2023/05/02 11:50:57;;;;;;;;;;;;;;;;;;5075836;28;20072;-84
2023/05/02 11:53:28;;;;;;;8.60;7.15;;;;;;;;;;5076101;28;19921;-85
2023/05/02 11:55:56;;;;;;;8.98;7.45;;;;;;;;;;5074886;28;20076;-87
2023/05/02 11:58:25;;;;;;;9.98;7.60;;;;;;;;;;5074556;28;20127;-84
2023/05/02 12:00:53;;;;;;;9.73;7.28;;;;;;;;;;5078276;28;20048;-87
2023/05/02 12:03:27;;;;;;;9.73;7.72;;;;;;;;;;5079720;28;20087;-83
2023/05/02 12:05:54;;;;;;;10.15;7.72;;;;;;;;;;5076074;28;20048;-84
2023/05/02 12:08:22;;;;;;;9.90;8.27;;;;;;;;;;5075582;28;20131;-84
2023/05/02 12:10:52;;;;;;;11.23;8.68;;;;;;;;;;5075113;28;20078;-85
2023/05/02 12:13:20;;;;;;;9.45;7.57;;;;;;;;;;5074855;28;20530;-84
2023/05/02 12:15:48;;;;;;;9.18;7.93;;;;;;;;;;5075414;28;20128;-84
2023/05/02 12:18:29;;;;;;;12.93;8.23;;;;;;;;;;5075409;28;20482;-84
2023/05/02 12:20:56;;;;;;;10.90;9.18;;;;;;;;;;5076761;28;20048;-85
2023/05/02 12:23:25;;;;;;;10.73;8.77;;;;;;;;;;5075163;28;20128;-85
2023/05/02 12:25:53;;;;;;;11.75;9.02;;;;;;;;;;5074178;28;20047;-85
2023/05/02 12:28:22;;;;;;;10.38;8.77;;;;;;;;;;5074073;28;20044;-85
2023/05/02 12:30:52;;;;;;;10.63;8.30;;;;;;;;;;5074875;28;20045;-85
2023/05/02 12:33:19;;;;;;;11.30;9.32;;;;;;;;;;5074425;28;20067;-85
2023/05/02 12:35:46;;;;;;;9.50;8.32;;;;;;;;;;5074550;28;20052;-85
2023/05/02 12:38:15;;;;;;;10.10;7.90;;;;;;;;;;5073314;28;20407;-84
2023/05/02 12:40:50;;;;;;;9.73;8.23;;;;;;;;;;5073915;28;20048;-85
2023/05/02 12:43:20;;;;;;;11.52;9.27;;;;;;;;;;5072834;28;20044;-84
2023/05/02 12:45:48;;;;;;;10.93;9.70;;;;;;;;;;5072840;28;20044;-85
2023/05/02 12:48:19;;;;;;;11.45;8.93;;;;;;;;;;5072886;28;20364;-85
2023/05/02 12:50:46;;;;;;;10.82;8.57;;;;;;;;;;5072495;28;20140;-85
2023/05/02 12:53:13;;;;;;;9.35;8.35;;;;;;;;;;5072783;28;20056;-86
2023/05/02 12:55:40;;;;;;;9.93;8.43;;;;;;;;;;5072643;28;20052;-86
2023/05/02 12:58:08;;;;;;;9.60;7.97;;;;;;;;;;5072348;28;20044;-85
2023/05/02 13:00:38;;;;;;;9.63;8.15;;;;;;;;;;5073166;28;20063;-84
2023/05/02 13:03:05;;;;;;;10.35;8.10;;;;;;;;;;5073864;28;20522;-84
2023/05/02 13:05:38;;;;;;;9.35;7.38;;;;;;;;;;5074120;28;20049;-85
2023/05/02 13:08:06;;;;;;;10.38;7.43;;;;;;;;;;5074782;28;20683;-84
2023/05/02 13:10:35;;;;;;;9.43;7.75;;;;;;;;;;5075718;28;20040;-84
2023/05/02 13:13:02;;;;;;;9.63;7.50;;;;;;;;;;5076459;28;20100;-85
2023/05/02 13:15:29;;;;;;;9.95;8.57;;;;;;;;;;5074537;28;20140;-84
2023/05/02 13:17:57;;;;;;;10.05;7.70;;;;;;;;;;5073386;28;20767;-83
2023/05/02 13:20:24;;;;;;;8.77;7.07;;;;;;;;;;5073889;28;20053;-83
2023/05/02 13:22:50;;;;;;;8.65;6.80;;;;;;;;;;5073387;28;20051;-84
2023/05/02 13:25:17;;;;;;;9.35;7.20;;;;;;;;;;5073665;28;20047;-83
2023/05/02 13:27:44;;;;;;;10.52;7.72;;;;;;;;;;5073253;28;20068;-83
2023/05/02 13:30:12;;;;;;;7.35;6.32;;;;;;;;;;5075176;28;20106;-83
2023/05/02 13:32:39;;;;;;;8.27;6.90;;;;;;;;;;5075144;28;20107;-82
2023/05/02 13:35:08;;;;;;;9.30;7.65;;;;;;;;;;5079576;28;20049;-84
2023/05/02 13:37:35;;;;;;;11.15;8.50;;;;;;;;;;5081933;28;20052;-85
2023/05/02 13:40:02;;;;;;;10.25;7.93;;;;;;;;;;5065543;28;20053;-83
2023/05/02 13:42:29;;;;;;;11.10;7.97;;;;;;;;;;5060983;28;20041;-85
2023/05/02 13:44:55;;;;;;;9.20;7.35;;;;;;;;;;5059618;28;20112;-84
2023/05/02 13:47:23;;;;;;;9.02;7.72;;;;;;;;;;5056608;28;20120;-85
2023/05/02 13:49:49;;;;;;;11.32;7.88;;;;;;;;;;5057065;28;20561;-85
2023/05/02 13:52:17;;;;;;;7.95;6.65;;;;;;;;;;5057467;28;20053;-84
2023/05/02 13:54:44;;;;;;;8.30;6.07;;;;;;;;;;5056807;28;20081;-84
2023/05/02 13:57:11;;;;;;;8.40;6.45;;;;;;;;;;5057614;28;20055;-85
2023/05/02 13:59:38;;;;;;;9.80;6.20;;;;;;;;;;5057170;28;20141;-86
2023/05/02 14:02:04;;;;;;;5.90;4.90;;;;;;;;;;5056644;28;20135;-83
2023/05/02 14:04:31;;;;;;;8.35;5.20;;;;;;;;;;5058401;28;20053;-84
2023/05/02 14:06:58;;;;;;;6.82;5.07;;;;;;;;;;5059878;28;20068;-86
2023/05/02 14:09:26;;;;;;;6.78;5.35;;;;;;;;;;5059283;28;20088;-84
2023/05/02 14:11:57;;;;;;;7.05;4.85;;;;;;;;;;5058785;28;20045;-84
2023/05/02 14:14:24;;;;;;;7.20;4.97;;;;;;;;;;5058980;28;20131;-83
2023/05/02 14:16:51;;;;;;;7.20;5.60;;;;;;;;;;5059599;28;20107;-84
2023/05/02 14:19:17;;;;;;;7.40;5.32;;;;;;;;;;5069562;28;20104;-84
2023/05/02 14:21:44;;;;;;;8.15;5.50;;;;;;;;;;5071339;28;20044;-84
2023/05/02 14:24:13;;;;;;;9.15;5.25;;;;;;;;;;5067464;28;20531;-85
2023/05/02 14:26:41;;;;;;;7.22;5.13;;;;;;;;;;5058214;28;20041;-83
2023/05/02 14:29:08;;;;;;;6.80;4.80;;;;;;;;;;5059815;28;20072;-83
2023/05/02 14:31:35;;;;;;;7.47;5.30;;;;;;;;;;5060521;28;20104;-83
2023/05/02 14:34:02;;;;;;;6.50;4.90;;;;;;;;;;5070273;28;20139;-85
2023/05/02 14:36:28;;;;;;;7.10;5.63;;;;;;;;;;5072568;28;20055;-86
2023/05/02 14:38:55;;;;;;;6.43;5.65;;;;;;;;;;5063773;28;20127;-84
2023/05/02 14:41:22;;;;;;;6.07;4.97;;;;;;;;;;5062005;28;20080;-83
2023/05/02 14:43:51;;;;;;;7.20;5.13;;;;;;;;;;5059619;28;20057;-84
2023/05/02 14:46:18;;;;;;;7.50;5.38;;;;;;;;;;5059124;28;20529;-84
2023/05/02 14:48:45;;;;;;;7.63;5.10;;;;;;;;;;5059736;28;20135;-84
2023/05/02 14:51:11;;;;;;;7.53;6.03;;;;;;;;;;5058662;28;20116;-85
2023/05/02 14:53:38;;;;;;;6.43;5.20;;;;;;;;;;5058273;28;20131;-84